M I D A S
Marine Information and Data Acquisition System
Tripno 366 of the Zeeleeuw from 2002-11-27 07:43:24 to 2002-11-27 13:54:14
Back to CruiseResearch ActivitiesStationsMapUnderway DataData graphs

EquipmentUnitsComment
TimeDGPSUTC
LatitudeDGPSDM.mWGS84
LongitudeDGPSDM.mWGS84
HeadingGyrodeg 
SOGDGPSknotsSpeed over ground
COGDGPSdegCourse over ground
DepthEcho soundermeters200 kHz
Missing or incorrect values are displayed as -999
Navigation data collected by the RV Zeeleeuw from 2002-11-27 07:43:24 to 2002-11-27 13:54:14
Time Latitude Longitude Heading SOG COG Depth
2002-11-27 07:44:28 51°13.597 2°56.095 113.7 2.3 294.5 -999
2002-11-27 07:45:28 51°13.608 2°56.054 113.2 0.4 316.2 9.9
2002-11-27 07:46:30 51°13.618 2°56.024 121.2 2.2 297.4 -999
2002-11-27 07:47:30 51°13.643 2°55.952 125 3.6 301.4 -999
2002-11-27 07:48:30 51°13.673 2°55.862 113.5 3.8 293 -999
2002-11-27 07:49:30 51°13.686 2°55.768 95.8 3.6 277.4 -999
2002-11-27 07:50:29 51°13.688 2°55.725 56.8 0.4 12.4 14.1
2002-11-27 07:51:28 51°13.723 2°55.726 348.8 3.6 343.7 11.2
2002-11-27 07:52:28 51°13.804 2°55.659 340.7 6.7 334.2 11.1
2002-11-27 07:53:28 51°13.925 2°55.587 347.2 8.3 341.7 10.8
2002-11-27 07:54:29 51°14.061 2°55.502 340.2 8.8 334.5 10.2
2002-11-27 07:55:28 51°14.187 2°55.377 329.8 9.4 324.4 10.5
2002-11-27 07:56:29 51°14.303 2°55.196 317.5 9.8 311.6 10.7
2002-11-27 07:57:28 51°14.423 2°55.003 331.5 11.1 324 10.5
2002-11-27 07:58:28 51°14.599 2°54.841 336.7 12.8 329.8 10
2002-11-27 07:59:28 51°14.788 2°54.67 337.2 13.1 331 9.9
2002-11-27 08:00:28 51°14.984 2°54.496 336 13.5 330.3 9.2
2002-11-27 08:01:28 51°15.181 2°54.32 336.7 13.7 330.4 9.3
2002-11-27 08:02:28 51°15.382 2°54.14 337.5 13.9 330.9 9.9
2002-11-27 08:03:28 51°15.583 2°53.955 337.7 14 330.6 10.8
2002-11-27 08:04:28 51°15.788 2°53.769 335.2 14.2 328.9 11.4
2002-11-27 08:05:28 51°15.988 2°53.576 334.8 14 328.7 12.1
2002-11-27 08:06:28 51°16.191 2°53.383 335.5 14.2 329.7 12.6
2002-11-27 08:07:28 51°16.392 2°53.189 335.2 14.1 329.2 12.7
2002-11-27 08:08:28 51°16.595 2°52.998 335.5 14.1 329.5 12
2002-11-27 08:09:28 51°16.796 2°52.807 335.3 14.1 329.5 9.8
2002-11-27 08:10:28 51°17 2°52.623 337.8 14.3 331.6 10.5
2002-11-27 08:11:28 51°17.207 2°52.441 337.5 14.3 331.6 10.5
2002-11-27 08:12:28 51°17.437 2°52.355 4.2 14.2 356.7 10.7
2002-11-27 08:13:28 51°17.676 2°52.351 6.3 14.3 358.9 10.4
2002-11-27 08:14:28 51°17.914 2°52.347 11.7 14.3 3.2 10.6
2002-11-27 08:15:28 51°18.143 2°52.443 23.7 14.3 15.8 11.1
2002-11-27 08:16:28 51°18.372 2°52.539 22.3 14.3 13.9 11.4
2002-11-27 08:17:28 51°18.6 2°52.644 32.8 14.3 22.8 11.8
2002-11-27 08:18:28 51°18.772 2°52.889 62.8 13.7 53.5 11.5
2002-11-27 08:19:28 51°18.888 2°53.208 74.3 13.9 64.2 12
2002-11-27 08:20:28 51°18.978 2°53.545 79.2 13.8 69.7 11.9
2002-11-27 08:21:29 51°19.052 2°53.898 80.3 13.8 71.1 11.9
2002-11-27 08:22:29 51°19.127 2°54.242 81 13.8 71.4 12.1
2002-11-27 08:23:29 51°19.202 2°54.587 81.3 13.7 71.3 12.1
2002-11-27 08:24:29 51°19.278 2°54.931 81 13.7 70.9 12.3
2002-11-27 08:25:29 51°19.355 2°55.274 80.8 13.7 71.4 11.7
2002-11-27 08:26:29 51°19.433 2°55.62 79.3 13.7 69.6 11.6
2002-11-27 08:27:29 51°19.506 2°55.964 80.3 13.9 70.5 11.7
2002-11-27 08:28:29 51°19.581 2°56.312 81 13.9 71.4 11.6
2002-11-27 08:29:29 51°19.657 2°56.661 80.3 13.8 70.5 11.4
2002-11-27 08:30:29 51°19.735 2°57.009 80.2 14 70.5 11.2
2002-11-27 08:31:29 51°19.81 2°57.36 79.8 13.9 70.8 11.2
2002-11-27 08:32:29 51°19.887 2°57.707 79.5 13.9 70.6 11
2002-11-27 08:33:29 51°19.962 2°58.056 79.3 13.9 70 11
2002-11-27 08:34:29 51°20.039 2°58.403 79.3 13.9 70.1 10.9
2002-11-27 08:35:29 51°20.113 2°58.752 81.8 13.9 72.8 10.8
2002-11-27 08:36:29 51°20.187 2°59.101 81.5 13.8 72.5 10.5
2002-11-27 08:37:29 51°20.26 2°59.448 80.2 13.8 71.3 10.5
2002-11-27 08:38:29 51°20.333 2°59.797 80.3 13.8 71.5 10.4
2002-11-27 08:39:29 51°20.407 3°0.144 80 13.7 70.8 10.3
2002-11-27 08:40:29 51°20.477 3°0.489 81.3 13.6 72.1 10.3
2002-11-27 08:41:29 51°20.551 3°0.83 76.5 13.5 68.1 10.3
2002-11-27 08:42:29 51°20.646 3°1.157 73.5 13.6 64.9 10.4
2002-11-27 08:43:29 51°20.737 3°1.487 76 13.6 67.5 10.2
2002-11-27 08:44:29 51°20.82 3°1.825 75.8 13.5 68 10.3
2002-11-27 08:45:29 51°20.901 3°2.161 77 13.6 69.5 10.1
2002-11-27 08:46:29 51°20.982 3°2.495 75.5 13.5 67.9 10.3
2002-11-27 08:47:29 51°21.062 3°2.829 76.2 13.4 69 10.4
2002-11-27 08:48:29 51°21.141 3°3.166 77.5 13.7 70.9 9.9
2002-11-27 08:49:29 51°21.216 3°3.506 76.7 13.6 70.3 10.5
2002-11-27 08:50:29 51°21.291 3°3.845 77.3 13.6 70.7 10.4
2002-11-27 08:51:29 51°21.365 3°4.187 76.8 13.6 70 10.4
2002-11-27 08:52:29 51°21.439 3°4.529 77.5 13.6 71.3 10.6
2002-11-27 08:53:29 51°21.509 3°4.871 78.2 13.5 73 -999
2002-11-27 08:54:29 51°21.578 3°5.214 77.5 13.6 72.5 10.7
2002-11-27 08:55:29 51°21.648 3°5.556 77.5 13.5 72.1 10.7
2002-11-27 08:56:29 51°21.717 3°5.895 77 13.4 71.9 10.8
2002-11-27 08:57:29 51°21.782 3°6.24 80.3 13.6 76.1 11
2002-11-27 08:58:29 51°21.836 3°6.587 80.3 13.5 75.6 11.1
2002-11-27 08:59:29 51°21.892 3°6.933 79.7 13.3 74.7 11.2
2002-11-27 09:00:29 51°21.947 3°7.275 82 13.3 77.1 11.4
2002-11-27 09:01:29 51°21.992 3°7.621 82.5 13.4 78.5 11.5
2002-11-27 09:02:29 51°22.037 3°7.97 82 13.4 77.8 11.4
2002-11-27 09:03:29 51°22.085 3°8.315 82.3 13.2 77.7 11.8
2002-11-27 09:04:29 51°22.128 3°8.662 82 13.3 78.5 11.5
2002-11-27 09:05:29 51°22.172 3°9.006 83.2 13.3 79.1 12.2
2002-11-27 09:06:29 51°22.219 3°9.346 81.8 13.1 77.3 12.2
2002-11-27 09:07:29 51°22.265 3°9.687 82 13 77.7 12.8
2002-11-27 09:08:29 51°22.309 3°10.027 82.2 13.1 78.9 -999
2002-11-27 09:09:29 51°22.352 3°10.367 82.5 13 78.6 -999
2002-11-27 09:10:29 51°22.398 3°10.706 82.7 12.9 78.3 15.3
2002-11-27 09:11:29 51°22.439 3°11.042 81.5 12.9 78.7 15.2
2002-11-27 09:12:29 51°22.48 3°11.379 82.2 12.9 78.3 13.9
2002-11-27 09:13:29 51°22.524 3°11.714 82.2 12.8 77.9 14.3
2002-11-27 09:14:29 51°22.568 3°12.048 82.2 12.9 78.5 13.5
2002-11-27 09:15:29 51°22.612 3°12.381 82 12.8 77.8 12.8
2002-11-27 09:16:29 51°22.655 3°12.712 82.5 12.6 78.2 12.5
2002-11-27 09:17:29 51°22.7 3°13.043 81.3 12.8 77 12.1
2002-11-27 09:18:29 51°22.744 3°13.371 83 12.6 78.6 11.2
2002-11-27 09:19:29 51°22.789 3°13.7 82 12.6 76.8 10.7
2002-11-27 09:20:29 51°22.835 3°14.026 81.8 12.6 77 10.3
2002-11-27 09:21:29 51°22.877 3°14.356 82.7 12.7 78.5 9.8
2002-11-27 09:22:29 51°22.919 3°14.684 82 12.6 77.8 9.3
2002-11-27 09:23:29 51°22.964 3°15.008 81 12.3 76.4 8.8
2002-11-27 09:24:29 51°23.008 3°15.327 83.5 12.3 79 8.6
2002-11-27 09:25:29 51°23.052 3°15.644 83.3 12.2 78.1 8.3
2002-11-27 09:26:29 51°23.085 3°15.96 84.2 12 79.7 8.2
2002-11-27 09:27:29 51°23.119 3°16.277 84.2 12 79.8 8
2002-11-27 09:28:29 51°23.157 3°16.591 78.8 12 74.2 8
2002-11-27 09:29:29 51°23.214 3°16.899 77.8 12.1 72.5 8
2002-11-27 09:30:29 51°23.317 3°17.174 50 12.6 41.9 8.8
2002-11-27 09:31:29 51°23.515 3°17.312 20.7 13.6 9.2 9.6
2002-11-27 09:32:29 51°23.746 3°17.355 19.8 14.1 7.6 11.1
2002-11-27 09:33:29 51°23.979 3°17.406 20.3 14.2 7.9 12.2
2002-11-27 09:34:29 51°24.217 3°17.385 359.5 14.9 347.1 13.8
2002-11-27 09:35:29 51°24.455 3°17.264 344.7 15.2 334.4 15.7
2002-11-27 09:36:29 51°24.625 3°16.963 306.8 15.6 301.5 14.5
2002-11-27 09:37:29 51°24.683 3°16.563 276 15.5 272.4 15.2
2002-11-27 09:38:29 51°24.7 3°16.145 278.7 15.8 275.2 15.1
2002-11-27 09:39:29 51°24.723 3°15.73 278.5 15.6 274.6 16.7
2002-11-27 09:40:29 51°24.732 3°15.317 275.3 15.5 271.4 -999
2002-11-27 09:41:29 51°24.736 3°14.902 272.8 15.5 268.8 14.3
2002-11-27 09:42:29 51°24.73 3°14.489 271 15.6 267.4 -999
2002-11-27 09:43:29 51°24.71 3°14.078 269.7 15.6 265.5 16.5
2002-11-27 09:44:29 51°24.689 3°13.667 269.8 15.5 265.2 15.2
2002-11-27 09:45:29 51°24.669 3°13.254 270.2 15.5 265.8 15.3
2002-11-27 09:46:29 51°24.642 3°12.845 266 15.5 261.7 14
2002-11-27 09:47:29 51°24.602 3°12.439 266.3 15.4 261.2 14.4
2002-11-27 09:48:29 51°24.561 3°12.032 265.7 15.5 260.2 14.3
2002-11-27 09:49:29 51°24.518 3°11.628 265.8 15.2 260.4 14.1
2002-11-27 09:50:29 51°24.477 3°11.231 266.3 15.1 260.2 14.7
2002-11-27 09:51:29 51°24.432 3°10.84 263.8 14.9 258.2 14.3
2002-11-27 09:52:29 51°24.383 3°10.452 264.2 14.9 259 13.9
2002-11-27 09:53:29 51°24.337 3°10.063 266.2 14.9 260.4 -999
2002-11-27 09:54:29 51°24.296 3°9.672 266 14.9 260.4 14.8
2002-11-27 09:55:29 51°24.268 3°9.281 271.5 14.9 265.2 15.3
2002-11-27 09:56:29 51°24.248 3°8.887 271.7 14.8 265.6 15.7
2002-11-27 09:57:29 51°24.227 3°8.496 271.8 14.8 265.4 15.3
2002-11-27 09:58:29 51°24.209 3°8.105 272.8 14.7 266.2 15.2
2002-11-27 09:59:29 51°24.221 3°7.713 283.2 14.8 275.9 13.6
2002-11-27 10:00:29 51°24.252 3°7.323 284.2 14.8 276.7 13.6
2002-11-27 10:01:29 51°24.282 3°6.931 283.5 14.9 276.4 13.1
2002-11-27 10:02:29 51°24.338 3°6.548 296.8 14.9 288.9 11.9
2002-11-27 10:03:29 51°24.419 3°6.172 297.5 15 289.3 12.5
2002-11-27 10:04:29 51°24.537 3°5.822 307.5 14.7 299.2 11.7
2002-11-27 10:05:29 51°24.704 3°5.534 335.3 14.8 323.3 12.1
2002-11-27 10:06:29 51°24.931 3°5.389 357.8 14.7 345.4 12
2002-11-27 10:07:29 51°25.172 3°5.342 6.5 14.6 354.3 11.3
2002-11-27 10:08:29 51°25.413 3°5.302 5.5 14.6 353.9 10.7
2002-11-27 10:09:29 51°25.653 3°5.266 5.8 14.4 355 10.3
2002-11-27 10:10:29 51°25.895 3°5.233 6 14.6 355.1 10
2002-11-27 10:11:29 51°26.137 3°5.202 6 14.6 355.2 10.3
2002-11-27 10:12:29 51°26.38 3°5.172 6 14.7 356.1 10.8
2002-11-27 10:13:29 51°26.622 3°5.147 6.2 14.6 356.6 11.1
2002-11-27 10:14:29 51°26.864 3°5.124 6.5 14.6 357.2 11.9
2002-11-27 10:15:29 51°27.105 3°5.103 5.8 14.5 356.9 12.7
2002-11-27 10:16:29 51°27.34 3°5.043 353.7 14.4 345.3 13
2002-11-27 10:17:29 51°27.572 3°4.948 354.3 14.4 346.2 13.4
2002-11-27 10:18:29 51°27.805 3°4.856 355 14.4 346.5 13
2002-11-27 10:19:29 51°28.033 3°4.729 346.8 14.5 338.9 14.4
2002-11-27 10:20:29 51°28.258 3°4.593 347.8 14.5 339.7 15.7
2002-11-27 10:21:29 51°28.485 3°4.461 347.7 14.5 340.2 17.7
2002-11-27 10:22:29 51°28.714 3°4.333 348 14.4 340.8 18.1
2002-11-27 10:23:29 51°28.939 3°4.206 348.5 14.3 340.2 -999
2002-11-27 10:24:29 51°29.167 3°4.083 349.8 14.6 341.4 20.2
2002-11-27 10:25:29 51°29.396 3°3.96 348.7 14.5 341 22.8
2002-11-27 10:26:29 51°29.625 3°3.835 349 14.5 341.5 -999
2002-11-27 10:27:29 51°29.855 3°3.719 348.3 14.4 341.7 17.4
2002-11-27 10:28:29 51°30.084 3°3.601 348.7 14.5 342.4 -999
2002-11-27 10:29:29 51°30.315 3°3.489 349.7 14.5 343.6 22.7
2002-11-27 10:30:29 51°30.543 3°3.367 347.8 14.4 341.4 26.3
2002-11-27 10:31:29 51°30.769 3°3.243 346 14.2 339.8 25.1
2002-11-27 10:32:29 51°30.993 3°3.115 345.3 14.2 339.3 25.3
2002-11-27 10:33:29 51°31.216 3°2.981 344.3 14.4 339.1 26.7
2002-11-27 10:34:29 51°31.44 3°2.845 344.2 14.5 339.1 26.5
2002-11-27 10:35:29 51°31.665 3°2.705 344.8 14.5 339.4 25.2
2002-11-27 10:36:29 51°31.891 3°2.565 343.3 14.6 338.3 25.6
2002-11-27 10:37:29 51°32.115 3°2.424 343.3 14.6 338.1 23.9
2002-11-27 10:38:29 51°32.337 3°2.285 343.2 14.3 338.4 23.9
2002-11-27 10:39:29 51°32.559 3°2.144 343.7 14.4 339.3 14.4
2002-11-27 10:40:29 51°32.782 3°2.008 343.7 14.2 339.5 16.9
2002-11-27 10:41:29 51°33.003 3°1.868 342.8 14.2 338.7 23.7
2002-11-27 10:42:29 51°33.224 3°1.732 343 14.1 338.4 24.8
2002-11-27 10:43:29 51°33.445 3°1.592 343.7 14.4 339.8 30.8
2002-11-27 10:44:29 51°33.668 3°1.458 342.8 14.2 339 33.4
2002-11-27 10:45:29 51°33.887 3°1.315 342.7 14.2 338.7 17.6
2002-11-27 10:46:29 51°34.11 3°1.176 342.5 14.4 338.6 14.9
2002-11-27 10:47:29 51°34.331 3°1.031 340.5 14.3 337 12.8
2002-11-27 10:48:29 51°34.553 3°0.89 341.7 14.2 338.2 14.4
2002-11-27 10:49:29 51°34.773 3°0.748 341.8 14.3 338.4 13.6
2002-11-27 10:50:29 51°34.98 3°0.561 325 14.3 323.8 -999
2002-11-27 10:51:29 51°35.044 3°0.227 262 13.7 264.7 20.6
2002-11-27 10:52:29 51°34.933 2°59.906 234.2 13.9 235.2 24.5
2002-11-27 10:53:29 51°34.812 2°59.586 240.2 14.1 241 22.5
2002-11-27 10:54:29 51°34.705 2°59.254 243.2 14.2 244.2 23.2
2002-11-27 10:55:29 51°34.6 2°58.919 243 14.2 243.2 23.4
2002-11-27 10:56:29 51°34.502 2°58.574 246.7 14.1 246.8 22.4
2002-11-27 10:57:29 51°34.41 2°58.227 247.8 14.1 247.3 22.2
2002-11-27 10:58:29 51°34.316 2°57.883 247.3 14.2 246.7 26.3
2002-11-27 10:59:29 51°34.219 2°57.533 245.8 14.5 245.2 24.5
2002-11-27 11:00:29 51°34.123 2°57.185 248 14.2 246.5 26.5
2002-11-27 11:01:29 51°34.027 2°56.836 246.8 14.4 246.4 28.3
2002-11-27 11:02:29 51°33.93 2°56.488 248.2 14.2 246.7 28.3
2002-11-27 11:03:29 51°33.832 2°56.14 246.5 14.5 244.7 27.7
2002-11-27 11:04:29 51°33.714 2°55.82 220.8 13.7 222.1 26
2002-11-27 11:05:29 51°33.501 2°55.781 172.7 13.4 173.2 23.5
2002-11-27 11:06:29 51°33.3 2°55.929 148.8 13.4 145.7 24.3
2002-11-27 11:07:29 51°33.104 2°56.11 151.3 13.6 150.1 23.6
2002-11-27 11:08:29 51°32.912 2°56.3 142.8 13.5 140.9 22.5
2002-11-27 11:09:29 51°32.733 2°56.517 147.7 13.5 145.5 19
2002-11-27 11:10:29 51°32.547 2°56.72 148.2 13.5 145.7 15.1
2002-11-27 11:11:29 51°32.36 2°56.925 148.5 13.6 145.9 16.6
2002-11-27 11:12:29 51°32.174 2°57.128 148.8 13.5 146.7 13.8
2002-11-27 11:13:29 51°31.988 2°57.33 148.5 13.3 145.7 14.4
2002-11-27 11:14:29 51°31.801 2°57.532 148.3 13.6 146.2 26.4
2002-11-27 11:15:29 51°31.611 2°57.728 154.8 13.6 152.2 32.9
2002-11-27 11:16:29 51°31.415 2°57.618 237 13.8 229.9 29.7
2002-11-27 11:17:29 51°31.298 2°57.288 240.7 14.4 237 31.6
2002-11-27 11:18:29 51°31.165 2°56.966 240.8 14.4 236.7 29.7
2002-11-27 11:19:29 51°31.043 2°56.635 239.5 14.3 236 30.3
2002-11-27 11:20:29 51°30.922 2°56.301 245.8 14.5 241.1 30.4
2002-11-27 11:21:29 51°30.809 2°55.957 245.3 14.5 240.4 33.1
2002-11-27 11:22:29 51°30.691 2°55.619 245.5 14.5 241 33.4
2002-11-27 11:23:29 51°30.574 2°55.28 245.7 14.6 240.5 32.5
2002-11-27 11:24:29 51°30.457 2°54.942 246 14.5 241.7 33.1
2002-11-27 11:25:29 51°30.34 2°54.604 245.3 14.5 240.7 30.8
2002-11-27 11:26:29 51°30.221 2°54.267 245.7 14.5 240.8 29.4
2002-11-27 11:27:29 51°30.105 2°53.927 246.2 14.5 241.4 29.7
2002-11-27 11:28:29 51°29.987 2°53.589 245.8 14.6 240.2 -999
2002-11-27 11:29:29 51°29.871 2°53.249 247 14.6 240.5 29
2002-11-27 11:30:29 51°29.782 2°52.896 268 14.5 258.9 26.5
2002-11-27 11:31:29 51°29.83 2°52.525 308.3 14.3 295.8 26.3
2002-11-27 11:32:29 51°30.004 2°52.28 336.2 14.1 324.3 28.5
2002-11-27 11:33:29 51°30.202 2°52.089 344.8 13.8 332.7 27.8
2002-11-27 11:34:29 51°30.419 2°51.961 350.7 14 340.1 16.4
2002-11-27 11:35:29 51°30.633 2°51.816 347.2 13.8 335.9 16.3
2002-11-27 11:36:29 51°30.845 2°51.67 347.7 13.8 336.9 15.4
2002-11-27 11:37:29 51°31.061 2°51.528 349 14.2 337.8 15.8
2002-11-27 11:38:29 51°31.279 2°51.389 348.5 14.1 337.6 21.2
2002-11-27 11:39:29 51°31.496 2°51.247 350.2 14.1 337.3 -999
2002-11-27 11:40:29 51°31.709 2°51.103 347.3 13.8 336.8 -999
2002-11-27 11:41:29 51°31.915 2°50.956 348.8 13.6 336.2 27
2002-11-27 11:42:29 51°32.062 2°50.696 301 13.9 291.2 29.2
2002-11-27 11:43:29 51°32.02 2°50.336 248.3 14.1 242.4 -999
2002-11-27 11:44:29 51°31.895 2°50.011 245.5 14.4 239.4 28
2002-11-27 11:45:29 51°31.772 2°49.679 246.7 14.5 239.2 20.1
2002-11-27 11:46:29 51°31.647 2°49.346 245.2 14.7 239.2 26.9
2002-11-27 11:47:29 51°31.522 2°49.012 245.2 14.7 239.3 24.6
2002-11-27 11:48:29 51°31.397 2°48.677 245.5 14.8 239.4 29.2
2002-11-27 11:49:29 51°31.273 2°48.34 245.2 14.7 239.6 23.9
2002-11-27 11:50:29 51°31.149 2°48.002 246 14.8 239.6 25.6
2002-11-27 11:51:29 51°31.023 2°47.664 245.3 14.8 238.7 27.2
2002-11-27 11:52:29 51°30.902 2°47.322 246.8 14.6 240 24.1
2002-11-27 11:53:29 51°30.779 2°46.985 246.3 14.8 239.6 24.1
2002-11-27 11:54:29 51°30.655 2°46.643 247.7 14.6 240.9 26
2002-11-27 11:55:29 51°30.535 2°46.305 246.3 14.6 240.6 25.2
2002-11-27 11:56:29 51°30.41 2°45.975 241.7 14.5 236.2 -999
2002-11-27 11:57:29 51°30.23 2°45.749 198.2 13.8 198.3 26.6
2002-11-27 11:58:29 51°30.03 2°45.863 140.7 13.3 138.1 24.1
2002-11-27 11:59:29 51°29.862 2°46.102 143.5 13.7 141 18.8
2002-11-27 12:00:29 51°29.684 2°46.329 146.3 13.7 143.6 21
2002-11-27 12:01:29 51°29.498 2°46.543 146.5 13.8 144.3 20.8
2002-11-27 12:02:29 51°29.311 2°46.754 147 13.7 145.5 24
2002-11-27 12:03:29 51°29.125 2°46.964 146.5 13.8 145.1 22.8
2002-11-27 12:04:29 51°28.94 2°47.172 147.3 13.7 145.2 25.6
2002-11-27 12:05:29 51°28.75 2°47.38 147.5 13.8 146.3 22.1
2002-11-27 12:06:29 51°28.562 2°47.587 147.5 13.8 146.4 24.7
2002-11-27 12:07:29 51°28.369 2°47.792 147.7 13.8 146.2 26.1
2002-11-27 12:08:29 51°28.179 2°47.997 146.7 13.8 146.6 29.8
2002-11-27 12:09:29 51°27.988 2°48.198 147 13.7 146.6 26.5
2002-11-27 12:10:29 51°27.798 2°48.401 146.5 13.8 147.1 25.1
2002-11-27 12:11:29 51°27.606 2°48.6 147.7 13.7 147.6 25.9
2002-11-27 12:12:29 51°27.413 2°48.799 146.8 13.9 147.9 24.5
2002-11-27 12:13:29 51°27.22 2°48.996 147.3 13.7 147.4 23.4
2002-11-27 12:14:29 51°27.025 2°49.194 147 13.9 147.1 21.8
2002-11-27 12:15:29 51°26.831 2°49.392 147.2 13.7 147.6 17
2002-11-27 12:16:29 51°26.637 2°49.59 147.2 13.9 147.8 21.1
2002-11-27 12:17:29 51°26.439 2°49.787 147.2 13.9 148.1 22.2
2002-11-27 12:18:29 51°26.227 2°49.933 173.7 14.1 172.9 21.2
2002-11-27 12:19:29 51°26.031 2°49.746 236.8 14.5 232.4 22.1
2002-11-27 12:20:29 51°25.918 2°49.4 250.7 14.8 248.2 22.2
2002-11-27 12:21:29 51°25.817 2°49.037 248.7 15 245.9 23.2
2002-11-27 12:22:29 51°25.718 2°48.672 249.5 14.9 246.8 22.4
2002-11-27 12:23:29 51°25.619 2°48.309 247.7 14.9 245.5 22.5
2002-11-27 12:24:29 51°25.519 2°47.95 248.3 14.8 246.2 22.9
2002-11-27 12:25:29 51°25.418 2°47.592 247.8 14.8 245.9 24.3
2002-11-27 12:26:29 51°25.318 2°47.233 248.2 14.8 246.5 24.5
2002-11-27 12:27:29 51°25.249 2°46.86 269.8 14.6 263.6 23.3
2002-11-27 12:28:29 51°25.328 2°46.506 312 14.1 303.6 23.3
2002-11-27 12:29:29 51°25.501 2°46.261 327.5 13.9 320.1 23.7
2002-11-27 12:30:29 51°25.69 2°46.047 332.2 14 325.4 22.2
2002-11-27 12:31:29 51°25.878 2°45.834 330.2 13.8 323.7 24.7
2002-11-27 12:32:29 51°26.062 2°45.612 329.5 13.7 322.5 25.6
2002-11-27 12:33:29 51°26.242 2°45.378 327.7 13.9 320.5 26
2002-11-27 12:34:29 51°26.415 2°45.134 323.5 13.9 316.3 26.3
2002-11-27 12:35:29 51°26.584 2°44.88 322.8 14.1 316.1 26.7
2002-11-27 12:36:29 51°26.75 2°44.623 322.8 14 316.4 26.6
2002-11-27 12:37:29 51°26.907 2°44.35 306.2 14.2 302.5 23.5
2002-11-27 12:38:29 51°26.921 2°43.975 263.3 14.5 260.9 22.6
2002-11-27 12:39:29 51°26.866 2°43.595 262.3 14.8 259.3 26.3
2002-11-27 12:40:29 51°26.844 2°43.203 274.5 14.7 270 23.2
2002-11-27 12:41:29 51°26.774 2°42.833 247.2 14.7 244.7 25.4
2002-11-27 12:42:29 51°26.692 2°42.463 256.7 14.8 253.4 30
2002-11-27 12:43:29 51°26.616 2°42.089 255.5 14.8 251.4 29.2
2002-11-27 12:44:29 51°26.533 2°41.716 252.3 14.8 250.1 28.1
2002-11-27 12:45:29 51°26.388 2°41.422 208.3 14.1 211.1 27.9
2002-11-27 12:46:29 51°26.166 2°41.41 163.8 13.8 166.1 24
2002-11-27 12:47:29 51°25.95 2°41.548 154.5 14 155.6 26
2002-11-27 12:48:29 51°25.733 2°41.692 157 14 157.6 24.5
2002-11-27 12:49:29 51°25.516 2°41.833 156.8 14.1 157.7 25.5
2002-11-27 12:50:29 51°25.3 2°41.973 157.2 14.1 158.2 24
2002-11-27 12:51:29 51°25.083 2°42.114 157.2 14.1 157.8 21.8
2002-11-27 12:52:29 51°24.866 2°42.256 157.5 14 158 18.6
2002-11-27 12:53:29 51°24.65 2°42.401 156.7 14.1 156.6 24.6
2002-11-27 12:54:29 51°24.433 2°42.543 156.7 14.2 157.3 23.8
2002-11-27 12:55:29 51°24.218 2°42.689 157.5 14 157.5 23.2
2002-11-27 12:56:29 51°24.003 2°42.834 157.7 14 156.9 24.9
2002-11-27 12:57:29 51°23.789 2°42.98 157.8 13.9 157.4 23.5
2002-11-27 12:58:29 51°23.575 2°43.126 157.5 14 156.4 24.9
2002-11-27 12:59:29 51°23.363 2°43.273 157.5 14 157.3 24.9
2002-11-27 13:00:29 51°23.147 2°43.419 156.8 14 156.3 23.7
2002-11-27 13:01:29 51°22.933 2°43.566 156.5 13.9 155.9 23.8
2002-11-27 13:02:29 51°22.721 2°43.716 157 14 155.5 25.6
2002-11-27 13:03:29 51°22.508 2°43.868 156.5 13.9 155.6 24.8
2002-11-27 13:04:29 51°22.295 2°44.019 157.5 14 155.7 24.9
2002-11-27 13:05:29 51°22.083 2°44.179 155.3 14 153.5 23.3
2002-11-27 13:06:29 51°21.875 2°44.346 154.7 14 152.7 20
2002-11-27 13:07:29 51°21.667 2°44.513 156 13.9 153.7 20.5
2002-11-27 13:08:29 51°21.464 2°44.693 151.8 14 149.5 22.7
2002-11-27 13:09:29 51°21.263 2°44.878 152 14 150.4 24.7
2002-11-27 13:10:29 51°21.063 2°45.063 152.2 13.9 149.7 25.7
2002-11-27 13:11:29 51°20.87 2°45.262 149.2 13.9 147.2 25.2
2002-11-27 13:12:29 51°20.676 2°45.461 148.7 13.7 146.8 24.7
2002-11-27 13:13:29 51°20.494 2°45.681 144.7 13.7 141.6 22
2002-11-27 13:14:29 51°20.316 2°45.91 142.8 13.7 140.2 17.1
2002-11-27 13:15:29 51°20.152 2°46.159 136.5 13.5 133.6 15
2002-11-27 13:16:29 51°20.004 2°46.431 133.3 13.7 130.3 15.2
2002-11-27 13:17:29 51°19.859 2°46.71 131.5 13.5 128.7 17.6
2002-11-27 13:18:29 51°19.719 2°46.997 129.7 13.6 127.1 20.1
2002-11-27 13:19:29 51°19.583 2°47.284 129.3 13.5 127.4 20.9
2002-11-27 13:20:29 51°19.445 2°47.568 130.3 13.6 127.8 20.9
2002-11-27 13:21:29 51°19.307 2°47.851 130 13.5 127.3 19.4
2002-11-27 13:22:29 51°19.169 2°48.135 130.3 13.5 127.7 17.1
2002-11-27 13:23:29 51°19.033 2°48.422 130 13.5 127.1 15
2002-11-27 13:24:29 51°18.898 2°48.708 130 13.5 126.8 13.1
2002-11-27 13:25:29 51°18.769 2°49.003 128.2 13.4 124.5 10.4
2002-11-27 13:26:29 51°18.641 2°49.3 127.8 13.5 124.5 9.8
2002-11-27 13:27:29 51°18.511 2°49.597 127.8 13.5 124.7 11.3
2002-11-27 13:28:29 51°18.379 2°49.896 127.3 13.7 124.2 13.1
2002-11-27 13:29:29 51°18.246 2°50.193 128.5 13.8 125.6 13.1
2002-11-27 13:30:29 51°18.113 2°50.489 128 13.7 126.1 12.7
2002-11-27 13:31:29 51°17.979 2°50.785 128.2 13.5 125.9 12
2002-11-27 13:32:29 51°17.847 2°51.082 128 13.6 125.7 10.6
2002-11-27 13:33:29 51°17.716 2°51.376 128.8 13.6 126 9.5
2002-11-27 13:34:30 51°17.581 2°51.679 128.7 13.9 126.4 -999
2002-11-27 13:35:29 51°17.446 2°51.971 129.2 13.9 126.2 10
2002-11-27 13:36:29 51°17.272 2°52.202 155.7 14.1 153.1 9.6
2002-11-27 13:37:30 51°17.059 2°52.37 155.5 14 152.7 9.2
2002-11-27 13:38:30 51°16.85 2°52.542 155.7 14.3 152.8 9.3
2002-11-27 13:39:29 51°16.644 2°52.711 156 14.3 153 10.5
2002-11-27 13:40:29 51°16.433 2°52.884 156.2 14 152.9 11.7
2002-11-27 13:41:29 51°16.226 2°53.057 155.7 14.1 152.1 11.6
2002-11-27 13:42:29 51°16.021 2°53.232 151.5 13.9 149 11.3
2002-11-27 13:43:29 51°15.823 2°53.418 151.3 13.7 149.2 11.2
2002-11-27 13:44:29 51°15.624 2°53.605 149.8 14 147.8 10.6
2002-11-27 13:45:30 51°15.428 2°53.806 149.3 13.8 146.8 9.7
2002-11-27 13:46:30 51°15.236 2°54.003 149.7 13.2 146.9 8.8
2002-11-27 13:47:30 51°15.058 2°54.183 149.3 12.3 147.2 8.4
2002-11-27 13:48:30 51°14.891 2°54.372 145.2 12.3 142.3 8.7
2002-11-27 13:49:30 51°14.734 2°54.585 141.8 12.2 138.6 15.2
2002-11-27 13:50:30 51°14.579 2°54.796 143.2 12.2 139.9 9
2002-11-27 13:51:29 51°14.429 2°55.006 141.3 12.2 138.2 9.7
2002-11-27 13:52:29 51°14.299 2°55.211 139.5 8.8 135.2 15.9
2002-11-27 13:53:29 51°14.22 2°55.329 142.8 5.6 138.2 9.7